sensor_id;sensor_type;location;lat;lon;timestamp;temperature;humidity
2459;DHT22;1241;50.920;6.936;2023-06-10T00:00:40;21.70;99.90
2459;DHT22;1241;50.920;6.936;2023-06-10T00:03:07;21.60;99.90
2459;DHT22;1241;50.920;6.936;2023-06-10T00:05:34;21.60;99.90
2459;DHT22;1241;50.920;6.936;2023-06-10T00:08:00;21.60;99.90
2459;DHT22;1241;50.920;6.936;2023-06-10T00:10:33;21.60;99.90
2459;DHT22;1241;50.920;6.936;2023-06-10T00:12:59;21.50;99.90
2459;DHT22;1241;50.920;6.936;2023-06-10T00:15:25;21.50;99.90
2459;DHT22;1241;50.920;6.936;2023-06-10T00:17:50;21.50;99.90
2459;DHT22;1241;50.920;6.936;2023-06-10T00:20:20;21.40;99.90
2459;DHT22;1241;50.920;6.936;2023-06-10T00:22:49;21.40;99.90
2459;DHT22;1241;50.920;6.936;2023-06-10T00:25:15;21.30;99.90
2459;DHT22;1241;50.920;6.936;2023-06-10T00:27:41;21.30;99.90
2459;DHT22;1241;50.920;6.936;2023-06-10T00:30:07;21.30;99.90
2459;DHT22;1241;50.920;6.936;2023-06-10T00:32:34;21.30;99.90
2459;DHT22;1241;50.920;6.936;2023-06-10T00:35:02;21.30;99.90
2459;DHT22;1241;50.920;6.936;2023-06-10T00:37:30;21.30;99.90
2459;DHT22;1241;50.920;6.936;2023-06-10T00:39:58;21.30;99.90
2459;DHT22;1241;50.920;6.936;2023-06-10T00:42:24;21.20;99.90
2459;DHT22;1241;50.920;6.936;2023-06-10T00:44:51;21.20;99.90
2459;DHT22;1241;50.920;6.936;2023-06-10T00:47:17;21.20;99.90
2459;DHT22;1241;50.920;6.936;2023-06-10T00:49:43;21.10;99.90
2459;DHT22;1241;50.920;6.936;2023-06-10T00:52:10;21.10;99.90
2459;DHT22;1241;50.920;6.936;2023-06-10T00:54:37;21.00;99.90
2459;DHT22;1241;50.920;6.936;2023-06-10T00:57:04;21.00;99.90
2459;DHT22;1241;50.920;6.936;2023-06-10T00:59:31;20.90;99.90
2459;DHT22;1241;50.920;6.936;2023-06-10T01:01:58;20.90;99.90
2459;DHT22;1241;50.920;6.936;2023-06-10T01:04:24;20.80;99.90
2459;DHT22;1241;50.920;6.936;2023-06-10T01:12:41;20.70;99.90
2459;DHT22;1241;50.920;6.936;2023-06-10T01:15:13;20.70;99.90
2459;DHT22;1241;50.920;6.936;2023-06-10T01:17:58;20.60;99.90
2459;DHT22;1241;50.920;6.936;2023-06-10T01:20:28;20.60;99.90
2459;DHT22;1241;50.920;6.936;2023-06-10T01:22:57;20.60;99.90
2459;DHT22;1241;50.920;6.936;2023-06-10T01:25:24;20.50;99.90
2459;DHT22;1241;50.920;6.936;2023-06-10T01:28:03;20.50;99.90
2459;DHT22;1241;50.920;6.936;2023-06-10T01:30:37;20.50;99.90
2459;DHT22;1241;50.920;6.936;2023-06-10T01:33:07;20.40;99.90
2459;DHT22;1241;50.920;6.936;2023-06-10T01:35:36;20.40;99.90
2459;DHT22;1241;50.920;6.936;2023-06-10T01:38:03;20.30;99.90
2459;DHT22;1241;50.920;6.936;2023-06-10T01:40:30;20.30;99.90
2459;DHT22;1241;50.920;6.936;2023-06-10T01:42:56;20.30;99.90
2459;DHT22;1241;50.920;6.936;2023-06-10T01:45:22;20.30;99.90
2459;DHT22;1241;50.920;6.936;2023-06-10T01:47:47;20.20;99.90
2459;DHT22;1241;50.920;6.936;2023-06-10T01:50:13;20.20;99.90
2459;DHT22;1241;50.920;6.936;2023-06-10T01:52:39;20.20;99.90
2459;DHT22;1241;50.920;6.936;2023-06-10T01:55:05;20.20;99.90
2459;DHT22;1241;50.920;6.936;2023-06-10T01:57:31;20.20;99.90
2459;DHT22;1241;50.920;6.936;2023-06-10T01:59:57;20.20;99.90
2459;DHT22;1241;50.920;6.936;2023-06-10T02:02:23;20.20;99.90
2459;DHT22;1241;50.920;6.936;2023-06-10T02:04:50;20.20;99.90
2459;DHT22;1241;50.920;6.936;2023-06-10T02:07:15;20.10;99.90
2459;DHT22;1241;50.920;6.936;2023-06-10T02:09:41;20.10;99.90
2459;DHT22;1241;50.920;6.936;2023-06-10T02:12:07;20.10;99.90
2459;DHT22;1241;50.920;6.936;2023-06-10T02:14:33;20.10;99.90
2459;DHT22;1241;50.920;6.936;2023-06-10T02:16:59;20.10;99.90
2459;DHT22;1241;50.920;6.936;2023-06-10T02:19:26;20.10;99.90
2459;DHT22;1241;50.920;6.936;2023-06-10T02:21:52;20.10;99.90
2459;DHT22;1241;50.920;6.936;2023-06-10T02:24:18;20.10;99.90
2459;DHT22;1241;50.920;6.936;2023-06-10T02:26:44;20.10;99.90
2459;DHT22;1241;50.920;6.936;2023-06-10T02:29:10;20.10;99.90
2459;DHT22;1241;50.920;6.936;2023-06-10T02:31:36;20.00;99.90
2459;DHT22;1241;50.920;6.936;2023-06-10T02:34:03;20.00;99.90
2459;DHT22;1241;50.920;6.936;2023-06-10T02:36:31;20.00;99.90
2459;DHT22;1241;50.920;6.936;2023-06-10T02:38:57;20.00;99.90
2459;DHT22;1241;50.920;6.936;2023-06-10T02:41:22;20.00;99.90
2459;DHT22;1241;50.920;6.936;2023-06-10T02:43:51;20.00;99.90
2459;DHT22;1241;50.920;6.936;2023-06-10T02:46:17;20.00;99.90
2459;DHT22;1241;50.920;6.936;2023-06-10T02:48:45;20.00;99.90
2459;DHT22;1241;50.920;6.936;2023-06-10T02:51:14;19.90;99.90
2459;DHT22;1241;50.920;6.936;2023-06-10T02:53:44;19.90;99.90
2459;DHT22;1241;50.920;6.936;2023-06-10T02:56:12;19.90;99.90
2459;DHT22;1241;50.920;6.936;2023-06-10T02:58:38;19.90;99.90
2459;DHT22;1241;50.920;6.936;2023-06-10T03:01:06;19.80;99.90
2459;DHT22;1241;50.920;6.936;2023-06-10T03:03:41;19.80;99.90
2459;DHT22;1241;50.920;6.936;2023-06-10T03:06:10;19.80;99.90
2459;DHT22;1241;50.920;6.936;2023-06-10T03:08:36;19.80;99.90
2459;DHT22;1241;50.920;6.936;2023-06-10T03:11:08;19.70;99.90
2459;DHT22;1241;50.920;6.936;2023-06-10T03:13:35;19.70;99.90
2459;DHT22;1241;50.920;6.936;2023-06-10T03:16:01;19.70;99.90
2459;DHT22;1241;50.920;6.936;2023-06-10T03:18:29;19.70;99.90
2459;DHT22;1241;50.920;6.936;2023-06-10T03:20:55;19.60;99.90
2459;DHT22;1241;50.920;6.936;2023-06-10T03:23:23;19.60;99.90
2459;DHT22;1241;50.920;6.936;2023-06-10T03:25:49;19.60;99.90
2459;DHT22;1241;50.920;6.936;2023-06-10T03:28:18;19.60;99.90
2459;DHT22;1241;50.920;6.936;2023-06-10T03:30:44;19.60;99.90
2459;DHT22;1241;50.920;6.936;2023-06-10T03:33:10;19.60;99.90
2459;DHT22;1241;50.920;6.936;2023-06-10T03:35:37;19.60;99.90
2459;DHT22;1241;50.920;6.936;2023-06-10T03:38:04;19.60;99.90
2459;DHT22;1241;50.920;6.936;2023-06-10T03:40:31;19.60;99.90
2459;DHT22;1241;50.920;6.936;2023-06-10T03:42:58;19.60;99.90
2459;DHT22;1241;50.920;6.936;2023-06-10T03:45:24;19.70;99.90
2459;DHT22;1241;50.920;6.936;2023-06-10T03:47:50;19.70;99.90
2459;DHT22;1241;50.920;6.936;2023-06-10T03:50:20;19.70;99.90
2459;DHT22;1241;50.920;6.936;2023-06-10T03:52:48;19.80;99.90
2459;DHT22;1241;50.920;6.936;2023-06-10T03:55:14;19.80;99.90
2459;DHT22;1241;50.920;6.936;2023-06-10T03:57:43;19.80;99.90
2459;DHT22;1241;50.920;6.936;2023-06-10T04:00:10;19.90;99.90
2459;DHT22;1241;50.920;6.936;2023-06-10T04:02:40;20.00;99.90
2459;DHT22;1241;50.920;6.936;2023-06-10T04:05:21;20.00;99.90
2459;DHT22;1241;50.920;6.936;2023-06-10T04:07:47;20.20;99.90
2459;DHT22;1241;50.920;6.936;2023-06-10T04:10:14;20.40;99.90
2459;DHT22;1241;50.920;6.936;2023-06-10T04:12:40;20.80;99.90
2459;DHT22;1241;50.920;6.936;2023-06-10T04:15:07;21.30;99.90
2459;DHT22;1241;50.920;6.936;2023-06-10T04:17:33;21.80;99.90
2459;DHT22;1241;50.920;6.936;2023-06-10T04:19:59;22.40;99.90
2459;DHT22;1241;50.920;6.936;2023-06-10T04:22:27;23.00;99.90
2459;DHT22;1241;50.920;6.936;2023-06-10T04:24:53;23.50;99.90
2459;DHT22;1241;50.920;6.936;2023-06-10T04:27:19;24.10;99.90
2459;DHT22;1241;50.920;6.936;2023-06-10T04:29:45;24.60;99.90
2459;DHT22;1241;50.920;6.936;2023-06-10T04:32:11;25.10;99.90
2459;DHT22;1241;50.920;6.936;2023-06-10T04:34:37;25.60;99.90
2459;DHT22;1241;50.920;6.936;2023-06-10T04:37:07;26.10;99.90
2459;DHT22;1241;50.920;6.936;2023-06-10T04:39:33;26.60;99.90
2459;DHT22;1241;50.920;6.936;2023-06-10T04:42:00;27.00;99.90
2459;DHT22;1241;50.920;6.936;2023-06-10T04:44:28;27.40;99.90
2459;DHT22;1241;50.920;6.936;2023-06-10T04:46:55;27.80;99.90
2459;DHT22;1241;50.920;6.936;2023-06-10T04:49:22;28.20;99.90
2459;DHT22;1241;50.920;6.936;2023-06-10T04:51:47;28.60;99.90
2459;DHT22;1241;50.920;6.936;2023-06-10T04:54:13;28.80;99.90
2459;DHT22;1241;50.920;6.936;2023-06-10T04:56:39;29.20;99.90
2459;DHT22;1241;50.920;6.936;2023-06-10T04:59:05;29.50;99.90
2459;DHT22;1241;50.920;6.936;2023-06-10T05:01:31;29.70;98.50
2459;DHT22;1241;50.920;6.936;2023-06-10T05:03:56;29.90;96.90
2459;DHT22;1241;50.920;6.936;2023-06-10T05:06:22;30.10;95.10
2459;DHT22;1241;50.920;6.936;2023-06-10T05:08:47;30.20;94.60
2459;DHT22;1241;50.920;6.936;2023-06-10T05:11:13;30.30;93.40
2459;DHT22;1241;50.920;6.936;2023-06-10T05:13:42;30.40;92.50
2459;DHT22;1241;50.920;6.936;2023-06-10T05:16:08;30.30;92.50
2459;DHT22;1241;50.920;6.936;2023-06-10T05:18:34;30.20;92.00
2459;DHT22;1241;50.920;6.936;2023-06-10T05:21:01;30.10;91.40
2459;DHT22;1241;50.920;6.936;2023-06-10T05:23:27;30.00;91.40
2459;DHT22;1241;50.920;6.936;2023-06-10T05:25:54;29.70;91.10
2459;DHT22;1241;50.920;6.936;2023-06-10T05:28:19;29.40;91.00
2459;DHT22;1241;50.920;6.936;2023-06-10T05:30:46;28.80;91.70
2459;DHT22;1241;50.920;6.936;2023-06-10T05:33:11;28.60;92.10
2459;DHT22;1241;50.920;6.936;2023-06-10T05:35:37;28.60;92.00
2459;DHT22;1241;50.920;6.936;2023-06-10T05:38:03;28.80;92.00
2459;DHT22;1241;50.920;6.936;2023-06-10T05:40:28;29.10;90.50
2459;DHT22;1241;50.920;6.936;2023-06-10T05:42:54;29.20;90.10
2459;DHT22;1241;50.920;6.936;2023-06-10T05:45:20;29.60;90.00
2459;DHT22;1241;50.920;6.936;2023-06-10T05:47:45;30.00;89.80
2459;DHT22;1241;50.920;6.936;2023-06-10T05:50:11;30.40;82.90
2459;DHT22;1241;50.920;6.936;2023-06-10T05:52:36;30.40;76.90
2459;DHT22;1241;50.920;6.936;2023-06-10T05:55:03;30.40;75.70
2459;DHT22;1241;50.920;6.936;2023-06-10T05:57:29;30.40;75.70
2459;DHT22;1241;50.920;6.936;2023-06-10T05:59:55;30.50;73.30
2459;DHT22;1241;50.920;6.936;2023-06-10T06:02:20;30.30;75.00
2459;DHT22;1241;50.920;6.936;2023-06-10T06:04:46;30.30;74.10
2459;DHT22;1241;50.920;6.936;2023-06-10T06:07:12;30.60;73.00
2459;DHT22;1241;50.920;6.936;2023-06-10T06:09:37;30.90;71.90
2459;DHT22;1241;50.920;6.936;2023-06-10T06:12:03;30.90;69.60
2459;DHT22;1241;50.920;6.936;2023-06-10T06:14:31;30.90;68.70
2459;DHT22;1241;50.920;6.936;2023-06-10T06:16:57;30.60;69.50
2459;DHT22;1241;50.920;6.936;2023-06-10T06:19:23;30.60;66.90
2459;DHT22;1241;50.920;6.936;2023-06-10T06:21:49;30.40;65.70
2459;DHT22;1241;50.920;6.936;2023-06-10T06:24:16;30.50;65.50
2459;DHT22;1241;50.920;6.936;2023-06-10T06:26:41;30.40;64.90
2459;DHT22;1241;50.920;6.936;2023-06-10T06:29:07;30.30;64.60
2459;DHT22;1241;50.920;6.936;2023-06-10T06:31:33;30.10;65.20
2459;DHT22;1241;50.920;6.936;2023-06-10T06:33:58;30.10;64.90
2459;DHT22;1241;50.920;6.936;2023-06-10T06:36:24;30.00;65.90
2459;DHT22;1241;50.920;6.936;2023-06-10T06:38:50;30.00;65.90
2459;DHT22;1241;50.920;6.936;2023-06-10T06:41:16;30.30;66.60
2459;DHT22;1241;50.920;6.936;2023-06-10T06:43:42;30.40;65.00
2459;DHT22;1241;50.920;6.936;2023-06-10T06:46:24;30.50;64.40
2459;DHT22;1241;50.920;6.936;2023-06-10T06:48:50;30.70;65.30
2459;DHT22;1241;50.920;6.936;2023-06-10T06:51:16;30.80;65.50
2459;DHT22;1241;50.920;6.936;2023-06-10T06:53:41;31.10;64.10
2459;DHT22;1241;50.920;6.936;2023-06-10T06:56:11;31.30;66.10
2459;DHT22;1241;50.920;6.936;2023-06-10T06:58:36;31.60;64.50
2459;DHT22;1241;50.920;6.936;2023-06-10T07:01:02;31.90;62.20
2459;DHT22;1241;50.920;6.936;2023-06-10T07:03:28;31.70;61.10
2459;DHT22;1241;50.920;6.936;2023-06-10T07:05:54;31.80;61.80
2459;DHT22;1241;50.920;6.936;2023-06-10T07:08:20;31.80;61.20
2459;DHT22;1241;50.920;6.936;2023-06-10T07:10:45;31.50;62.10
2459;DHT22;1241;50.920;6.936;2023-06-10T07:13:11;31.50;63.20
2459;DHT22;1241;50.920;6.936;2023-06-10T07:15:38;31.60;63.10
2459;DHT22;1241;50.920;6.936;2023-06-10T07:18:04;31.50;61.40
2459;DHT22;1241;50.920;6.936;2023-06-10T07:20:30;31.50;62.50
2459;DHT22;1241;50.920;6.936;2023-06-10T07:22:56;31.50;60.90
2459;DHT22;1241;50.920;6.936;2023-06-10T07:25:21;31.30;61.60
2459;DHT22;1241;50.920;6.936;2023-06-10T07:27:47;31.40;62.10
2459;DHT22;1241;50.920;6.936;2023-06-10T07:30:13;31.30;61.50
2459;DHT22;1241;50.920;6.936;2023-06-10T07:32:38;31.40;62.60
2459;DHT22;1241;50.920;6.936;2023-06-10T07:35:07;31.70;62.90
2459;DHT22;1241;50.920;6.936;2023-06-10T07:37:33;31.70;60.50
2459;DHT22;1241;50.920;6.936;2023-06-10T07:39:59;31.50;60.50
2459;DHT22;1241;50.920;6.936;2023-06-10T07:42:25;31.50;61.70
2459;DHT22;1241;50.920;6.936;2023-06-10T07:44:50;31.70;60.90
2459;DHT22;1241;50.920;6.936;2023-06-10T07:47:16;31.90;60.60
2459;DHT22;1241;50.920;6.936;2023-06-10T07:49:42;32.00;59.90
2459;DHT22;1241;50.920;6.936;2023-06-10T07:52:08;32.00;59.60
2459;DHT22;1241;50.920;6.936;2023-06-10T07:54:34;31.80;59.90
2459;DHT22;1241;50.920;6.936;2023-06-10T07:56:59;31.80;62.30
2459;DHT22;1241;50.920;6.936;2023-06-10T07:59:25;31.80;59.70
2459;DHT22;1241;50.920;6.936;2023-06-10T08:01:52;32.00;61.00
2459;DHT22;1241;50.920;6.936;2023-06-10T08:04:18;31.90;61.80
2459;DHT22;1241;50.920;6.936;2023-06-10T08:06:44;31.80;60.30
2459;DHT22;1241;50.920;6.936;2023-06-10T08:09:09;31.70;60.20
2459;DHT22;1241;50.920;6.936;2023-06-10T08:11:35;31.40;60.80
2459;DHT22;1241;50.920;6.936;2023-06-10T08:14:01;31.40;61.20
2459;DHT22;1241;50.920;6.936;2023-06-10T08:16:27;31.20;60.60
2459;DHT22;1241;50.920;6.936;2023-06-10T08:18:53;31.00;61.70
2459;DHT22;1241;50.920;6.936;2023-06-10T08:21:19;30.90;63.50
2459;DHT22;1241;50.920;6.936;2023-06-10T08:23:45;30.70;63.20
2459;DHT22;1241;50.920;6.936;2023-06-10T08:26:10;30.20;64.90
2459;DHT22;1241;50.920;6.936;2023-06-10T08:28:36;30.00;64.90
2459;DHT22;1241;50.920;6.936;2023-06-10T08:31:02;29.60;67.60
2459;DHT22;1241;50.920;6.936;2023-06-10T08:33:28;29.50;67.10
2459;DHT22;1241;50.920;6.936;2023-06-10T08:35:53;29.20;68.60
2459;DHT22;1241;50.920;6.936;2023-06-10T08:38:19;28.90;69.50
2459;DHT22;1241;50.920;6.936;2023-06-10T08:40:45;28.80;71.60
2459;DHT22;1241;50.920;6.936;2023-06-10T08:43:17;28.60;71.40
2459;DHT22;1241;50.920;6.936;2023-06-10T08:45:48;28.60;72.70
2459;DHT22;1241;50.920;6.936;2023-06-10T08:48:14;28.40;73.70
2459;DHT22;1241;50.920;6.936;2023-06-10T08:50:42;28.20;74.50
2459;DHT22;1241;50.920;6.936;2023-06-10T08:53:10;28.00;76.10
2459;DHT22;1241;50.920;6.936;2023-06-10T08:55:40;28.00;76.20
2459;DHT22;1241;50.920;6.936;2023-06-10T08:58:07;28.00;77.80
2459;DHT22;1241;50.920;6.936;2023-06-10T09:00:34;28.00;81.20
2459;DHT22;1241;50.920;6.936;2023-06-10T09:03:00;28.10;80.30
2459;DHT22;1241;50.920;6.936;2023-06-10T09:05:28;28.10;80.50
2459;DHT22;1241;50.920;6.936;2023-06-10T09:07:56;28.00;82.20
2459;DHT22;1241;50.920;6.936;2023-06-10T09:10:22;28.10;81.60
2459;DHT22;1241;50.920;6.936;2023-06-10T09:12:48;28.00;80.50
2459;DHT22;1241;50.920;6.936;2023-06-10T09:15:13;27.90;83.10
2459;DHT22;1241;50.920;6.936;2023-06-10T09:17:40;27.90;83.00
2459;DHT22;1241;50.920;6.936;2023-06-10T09:20:09;27.90;85.00
2459;DHT22;1241;50.920;6.936;2023-06-10T09:22:35;28.00;84.30
2459;DHT22;1241;50.920;6.936;2023-06-10T09:25:06;28.10;83.60
2459;DHT22;1241;50.920;6.936;2023-06-10T09:27:44;28.00;84.50
2459;DHT22;1241;50.920;6.936;2023-06-10T09:30:27;28.10;85.30
2459;DHT22;1241;50.920;6.936;2023-06-10T09:32:54;28.20;84.60
2459;DHT22;1241;50.920;6.936;2023-06-10T09:35:24;28.40;82.80
2459;DHT22;1241;50.920;6.936;2023-06-10T09:37:56;28.60;84.50
2459;DHT22;1241;50.920;6.936;2023-06-10T09:40:23;28.80;82.60
2459;DHT22;1241;50.920;6.936;2023-06-10T09:42:59;28.80;81.70
2459;DHT22;1241;50.920;6.936;2023-06-10T09:45:32;28.80;80.70
2459;DHT22;1241;50.920;6.936;2023-06-10T09:47:58;28.80;80.60
2459;DHT22;1241;50.920;6.936;2023-06-10T09:50:23;28.90;82.20
2459;DHT22;1241;50.920;6.936;2023-06-10T09:52:50;29.00;83.10
2459;DHT22;1241;50.920;6.936;2023-06-10T09:55:17;29.00;81.70
2459;DHT22;1241;50.920;6.936;2023-06-10T09:57:43;29.10;80.20
2459;DHT22;1241;50.920;6.936;2023-06-10T10:00:13;29.10;81.90
2459;DHT22;1241;50.920;6.936;2023-06-10T10:02:45;29.20;79.90
2459;DHT22;1241;50.920;6.936;2023-06-10T10:05:13;29.10;78.40
2459;DHT22;1241;50.920;6.936;2023-06-10T10:07:40;29.10;79.50
2459;DHT22;1241;50.920;6.936;2023-06-10T10:10:06;29.10;76.90
2459;DHT22;1241;50.920;6.936;2023-06-10T10:12:34;29.10;75.80
2459;DHT22;1241;50.920;6.936;2023-06-10T10:15:00;29.20;75.70
2459;DHT22;1241;50.920;6.936;2023-06-10T10:17:29;29.40;76.70
2459;DHT22;1241;50.920;6.936;2023-06-10T10:20:03;29.70;77.80
2459;DHT22;1241;50.920;6.936;2023-06-10T10:22:36;29.80;74.30
2459;DHT22;1241;50.920;6.936;2023-06-10T10:25:13;29.60;71.90
2459;DHT22;1241;50.920;6.936;2023-06-10T10:28:31;29.70;71.50
2459;DHT22;1241;50.920;6.936;2023-06-10T10:30:52;29.70;71.40
2459;DHT22;1241;50.920;6.936;2023-06-10T10:33:18;29.80;70.30
2459;DHT22;1241;50.920;6.936;2023-06-10T10:35:46;29.90;72.50
2459;DHT22;1241;50.920;6.936;2023-06-10T10:38:11;30.20;71.70
2459;DHT22;1241;50.920;6.936;2023-06-10T10:40:38;30.30;68.00
2459;DHT22;1241;50.920;6.936;2023-06-10T10:43:04;30.30;67.70
2459;DHT22;1241;50.920;6.936;2023-06-10T10:45:33;30.50;67.20
2459;DHT22;1241;50.920;6.936;2023-06-10T10:48:05;30.40;68.20
2459;DHT22;1241;50.920;6.936;2023-06-10T10:50:31;30.20;65.30
2459;DHT22;1241;50.920;6.936;2023-06-10T10:53:03;30.30;67.00
2459;DHT22;1241;50.920;6.936;2023-06-10T10:55:29;30.50;67.10
2459;DHT22;1241;50.920;6.936;2023-06-10T11:00:35;30.90;62.10
2459;DHT22;1241;50.920;6.936;2023-06-10T11:05:42;30.90;60.60
2459;DHT22;1241;50.920;6.936;2023-06-10T11:08:14;31.00;61.10
2459;DHT22;1241;50.920;6.936;2023-06-10T11:10:41;31.00;59.10
2459;DHT22;1241;50.920;6.936;2023-06-10T11:13:18;31.20;59.80
2459;DHT22;1241;50.920;6.936;2023-06-10T11:15:48;31.50;59.20
2459;DHT22;1241;50.920;6.936;2023-06-10T11:18:25;31.70;56.40
2459;DHT22;1241;50.920;6.936;2023-06-10T11:20:51;31.90;54.10
2459;DHT22;1241;50.920;6.936;2023-06-10T11:26:19;32.00;52.10
2459;DHT22;1241;50.920;6.936;2023-06-10T11:31:23;32.10;53.00
2459;DHT22;1241;50.920;6.936;2023-06-10T11:34:00;32.30;51.60
2459;DHT22;1241;50.920;6.936;2023-06-10T11:36:27;32.70;50.40
2459;DHT22;1241;50.920;6.936;2023-06-10T11:38:58;32.80;49.40
2459;DHT22;1241;50.920;6.936;2023-06-10T11:41:24;32.80;49.10
2459;DHT22;1241;50.920;6.936;2023-06-10T11:43:54;32.70;49.50
2459;DHT22;1241;50.920;6.936;2023-06-10T11:46:23;32.80;49.10
2459;DHT22;1241;50.920;6.936;2023-06-10T11:48:54;33.10;48.70
2459;DHT22;1241;50.920;6.936;2023-06-10T11:51:20;33.10;48.80
2459;DHT22;1241;50.920;6.936;2023-06-10T11:53:48;32.90;46.10
2459;DHT22;1241;50.920;6.936;2023-06-10T11:56:20;32.70;45.20
2459;DHT22;1241;50.920;6.936;2023-06-10T11:58:45;32.60;45.00
2459;DHT22;1241;50.920;6.936;2023-06-10T12:01:21;32.40;44.30
2459;DHT22;1241;50.920;6.936;2023-06-10T12:03:48;32.40;44.20
2459;DHT22;1241;50.920;6.936;2023-06-10T12:06:21;32.70;44.00
2459;DHT22;1241;50.920;6.936;2023-06-10T12:08:47;32.40;45.20
2459;DHT22;1241;50.920;6.936;2023-06-10T12:11:12;32.50;45.50
2459;DHT22;1241;50.920;6.936;2023-06-10T12:13:45;32.70;45.50
2459;DHT22;1241;50.920;6.936;2023-06-10T12:16:15;32.60;44.60
2459;DHT22;1241;50.920;6.936;2023-06-10T12:18:43;32.50;45.20
2459;DHT22;1241;50.920;6.936;2023-06-10T12:21:20;32.50;45.40
2459;DHT22;1241;50.920;6.936;2023-06-10T12:24:06;32.70;46.20
2459;DHT22;1241;50.920;6.936;2023-06-10T12:26:42;32.90;44.00
2459;DHT22;1241;50.920;6.936;2023-06-10T12:29:24;32.70;44.40
2459;DHT22;1241;50.920;6.936;2023-06-10T12:32:03;32.60;44.30
2459;DHT22;1241;50.920;6.936;2023-06-10T12:34:36;32.50;44.90
2459;DHT22;1241;50.920;6.936;2023-06-10T12:37:13;32.30;45.50
2459;DHT22;1241;50.920;6.936;2023-06-10T12:39:40;32.30;45.50
2459;DHT22;1241;50.920;6.936;2023-06-10T12:42:06;32.40;45.40
2459;DHT22;1241;50.920;6.936;2023-06-10T12:44:43;32.70;44.50
2459;DHT22;1241;50.920;6.936;2023-06-10T12:47:10;33.00;44.40
2459;DHT22;1241;50.920;6.936;2023-06-10T12:49:38;33.10;43.40
2459;DHT22;1241;50.920;6.936;2023-06-10T12:52:05;32.90;40.90
2459;DHT22;1241;50.920;6.936;2023-06-10T12:54:31;32.60;41.40
2459;DHT22;1241;50.920;6.936;2023-06-10T12:56:57;32.70;42.10
2459;DHT22;1241;50.920;6.936;2023-06-10T12:59:23;32.80;41.70
2459;DHT22;1241;50.920;6.936;2023-06-10T13:01:52;32.80;42.40
2459;DHT22;1241;50.920;6.936;2023-06-10T13:04:18;32.80;42.30
2459;DHT22;1241;50.920;6.936;2023-06-10T13:06:45;32.80;41.90
2459;DHT22;1241;50.920;6.936;2023-06-10T13:09:13;32.80;42.50
2459;DHT22;1241;50.920;6.936;2023-06-10T13:11:38;32.70;41.70
2459;DHT22;1241;50.920;6.936;2023-06-10T13:14:04;32.70;41.60
2459;DHT22;1241;50.920;6.936;2023-06-10T13:16:32;32.80;42.10
2459;DHT22;1241;50.920;6.936;2023-06-10T13:18:58;32.80;40.60
2459;DHT22;1241;50.920;6.936;2023-06-10T13:21:24;32.80;40.90
2459;DHT22;1241;50.920;6.936;2023-06-10T13:23:51;32.90;40.70
2459;DHT22;1241;50.920;6.936;2023-06-10T13:26:17;33.10;40.00
2459;DHT22;1241;50.920;6.936;2023-06-10T13:28:43;33.20;41.40
2459;DHT22;1241;50.920;6.936;2023-06-10T13:31:10;33.10;40.10
2459;DHT22;1241;50.920;6.936;2023-06-10T13:33:35;32.90;39.50
2459;DHT22;1241;50.920;6.936;2023-06-10T13:36:01;33.00;40.00
2459;DHT22;1241;50.920;6.936;2023-06-10T13:38:27;33.20;39.60
2459;DHT22;1241;50.920;6.936;2023-06-10T13:40:52;33.50;38.20
2459;DHT22;1241;50.920;6.936;2023-06-10T13:43:18;33.80;38.20
2459;DHT22;1241;50.920;6.936;2023-06-10T13:45:44;33.90;38.70
2459;DHT22;1241;50.920;6.936;2023-06-10T13:48:10;33.70;40.30
2459;DHT22;1241;50.920;6.936;2023-06-10T13:50:37;33.60;39.60
2459;DHT22;1241;50.920;6.936;2023-06-10T13:53:03;33.50;40.20
2459;DHT22;1241;50.920;6.936;2023-06-10T13:55:28;33.10;41.50
2459;DHT22;1241;50.920;6.936;2023-06-10T13:57:54;32.90;41.80
2459;DHT22;1241;50.920;6.936;2023-06-10T14:00:20;32.50;42.40
2459;DHT22;1241;50.920;6.936;2023-06-10T14:02:46;32.10;42.50
2459;DHT22;1241;50.920;6.936;2023-06-10T14:05:12;31.90;43.30
2459;DHT22;1241;50.920;6.936;2023-06-10T14:07:37;31.90;43.60
2459;DHT22;1241;50.920;6.936;2023-06-10T14:10:04;31.80;42.80
2459;DHT22;1241;50.920;6.936;2023-06-10T14:12:29;31.80;43.40
2459;DHT22;1241;50.920;6.936;2023-06-10T14:14:55;31.80;42.60
2459;DHT22;1241;50.920;6.936;2023-06-10T14:17:21;31.70;41.70
2459;DHT22;1241;50.920;6.936;2023-06-10T14:19:48;31.60;41.50
2459;DHT22;1241;50.920;6.936;2023-06-10T14:22:14;31.60;42.60
2459;DHT22;1241;50.920;6.936;2023-06-10T14:24:39;31.60;42.60
2459;DHT22;1241;50.920;6.936;2023-06-10T14:27:05;31.50;42.80
2459;DHT22;1241;50.920;6.936;2023-06-10T14:29:31;31.50;42.90
2459;DHT22;1241;50.920;6.936;2023-06-10T14:31:59;31.40;42.50
2459;DHT22;1241;50.920;6.936;2023-06-10T14:34:25;31.40;43.30
2459;DHT22;1241;50.920;6.936;2023-06-10T14:36:54;31.30;43.00
2459;DHT22;1241;50.920;6.936;2023-06-10T14:39:20;31.20;43.20
2459;DHT22;1241;50.920;6.936;2023-06-10T14:41:46;31.30;43.30
2459;DHT22;1241;50.920;6.936;2023-06-10T14:44:12;31.30;43.50
2459;DHT22;1241;50.920;6.936;2023-06-10T14:46:37;31.30;44.30
2459;DHT22;1241;50.920;6.936;2023-06-10T14:49:03;31.40;44.50
2459;DHT22;1241;50.920;6.936;2023-06-10T14:51:28;31.50;44.30
2459;DHT22;1241;50.920;6.936;2023-06-10T14:53:54;31.50;44.40
2459;DHT22;1241;50.920;6.936;2023-06-10T14:56:20;31.50;44.70
2459;DHT22;1241;50.920;6.936;2023-06-10T14:58:45;31.40;43.80
2459;DHT22;1241;50.920;6.936;2023-06-10T15:01:11;31.30;44.00
2459;DHT22;1241;50.920;6.936;2023-06-10T15:03:37;31.40;43.90
2459;DHT22;1241;50.920;6.936;2023-06-10T15:06:03;31.50;42.50
2459;DHT22;1241;50.920;6.936;2023-06-10T15:08:28;31.50;42.80
2459;DHT22;1241;50.920;6.936;2023-06-10T15:10:54;31.40;43.40
2459;DHT22;1241;50.920;6.936;2023-06-10T15:13:20;31.50;44.00
2459;DHT22;1241;50.920;6.936;2023-06-10T15:15:46;31.60;44.60
2459;DHT22;1241;50.920;6.936;2023-06-10T15:18:11;31.60;41.00
2459;DHT22;1241;50.920;6.936;2023-06-10T15:20:37;31.70;40.00
2459;DHT22;1241;50.920;6.936;2023-06-10T15:23:03;31.60;39.90
2459;DHT22;1241;50.920;6.936;2023-06-10T15:25:28;31.50;40.50
2459;DHT22;1241;50.920;6.936;2023-06-10T15:27:54;31.50;40.70
2459;DHT22;1241;50.920;6.936;2023-06-10T15:30:20;31.50;42.00
2459;DHT22;1241;50.920;6.936;2023-06-10T15:32:45;31.70;40.40
2459;DHT22;1241;50.920;6.936;2023-06-10T15:35:11;31.80;40.50
2459;DHT22;1241;50.920;6.936;2023-06-10T15:37:37;31.90;41.10
2459;DHT22;1241;50.920;6.936;2023-06-10T15:40:03;32.10;41.00
2459;DHT22;1241;50.920;6.936;2023-06-10T15:42:29;32.30;41.40
2459;DHT22;1241;50.920;6.936;2023-06-10T15:44:55;32.20;42.30
2459;DHT22;1241;50.920;6.936;2023-06-10T15:47:20;32.20;42.30
2459;DHT22;1241;50.920;6.936;2023-06-10T15:49:46;32.20;42.20
2459;DHT22;1241;50.920;6.936;2023-06-10T15:52:12;32.10;42.40
2459;DHT22;1241;50.920;6.936;2023-06-10T15:54:37;31.80;42.70
2459;DHT22;1241;50.920;6.936;2023-06-10T15:57:03;31.70;43.00
2459;DHT22;1241;50.920;6.936;2023-06-10T15:59:30;31.60;43.20
2459;DHT22;1241;50.920;6.936;2023-06-10T16:01:55;31.30;43.50
2459;DHT22;1241;50.920;6.936;2023-06-10T16:04:21;31.20;44.20
2459;DHT22;1241;50.920;6.936;2023-06-10T16:06:47;31.10;43.60
2459;DHT22;1241;50.920;6.936;2023-06-10T16:09:14;31.20;44.20
2459;DHT22;1241;50.920;6.936;2023-06-10T16:11:40;31.10;43.50
2459;DHT22;1241;50.920;6.936;2023-06-10T16:14:06;31.10;42.70
2459;DHT22;1241;50.920;6.936;2023-06-10T16:16:32;30.90;42.70
2459;DHT22;1241;50.920;6.936;2023-06-10T16:18:57;30.90;42.70